Terminal Aerodrome Forecast
Issued by NWS

Home | Current Version | Previous Version | Text Only | Print | Product List | Glossary On
Versions: 1 2 3 4 5 6 7 8 9 10 11 12 13 14 15 16 17 18 19 20
000
FTUS46 KSEW 021100
TAFOLM
TAF
KOLM 021124Z 0212/0312 18004KT P6SM OVC007
      TEMPO 0214/0216 3SM BR BKN002
     FM021800 22010KT P6SM BKN025
      TEMPO 0220/0224 -SHRA=

USA.gov is the U.S. government's official web portal to all federal, state and local government web resources and services.